Time;durP1;ratioP1;P1;durP2;ratioP2;P2;SDS_P1;SDS_P2;PMS_P1;PMS_P2;Temp;Humidity;BMP_temperature;BMP_pressure;BME280_temperature;BME280_humidity;BME280_pressure;Samples;Min_cycle;Max_cycle;Signal;HPM_P1;HPM_P2
2023/12/03 00:01:20;;;;;;;16.80;9.55;;;6.80;65.50;8.80;101644.00;;;;5008986;28;20233;-78
2023/12/03 00:03:48;;;;;;;21.58;10.55;;;6.90;65.50;8.80;101629.00;;;;5009982;28;20204;-78
2023/12/03 00:06:17;;;;;;;15.65;9.23;;;6.80;65.50;8.80;101655.00;;;;5009918;28;20247;-77
2023/12/03 00:08:44;;;;;;;19.00;10.50;;;6.90;65.60;8.80;101652.00;;;;5010270;28;20590;-77
2023/12/03 00:11:12;;;;;;;17.02;9.90;;;6.90;65.60;8.80;101648.00;;;;5009876;28;20321;-77
2023/12/03 00:13:39;;;;;;;19.80;9.50;;;6.80;65.50;8.80;101648.00;;;;5009560;28;20678;-77
2023/12/03 00:16:07;;;;;;;17.60;9.00;;;6.90;65.50;8.80;101651.00;;;;5009568;28;20659;-77
2023/12/03 00:18:34;;;;;;;16.83;9.55;;;6.90;65.60;8.80;101648.00;;;;5009265;28;20205;-77
2023/12/03 00:21:01;;;;;;;18.77;8.90;;;6.90;65.60;8.80;101649.00;;;;5009456;28;20667;-77
2023/12/03 00:23:29;;;;;;;18.33;9.65;;;6.90;65.60;8.80;101651.00;;;;5010096;28;20201;-78
2023/12/03 00:25:56;;;;;;;17.45;9.50;;;6.90;65.60;8.80;101648.00;;;;5009775;28;20197;-77
2023/12/03 00:28:23;;;;;;;16.45;9.77;;;6.90;65.70;8.90;101651.00;;;;5008059;28;20574;-77
2023/12/03 00:30:50;;;;;;;15.85;8.68;;;6.90;65.70;8.90;101658.00;;;;5008574;28;20679;-77
2023/12/03 00:33:17;;;;;;;17.90;9.48;;;6.90;65.60;8.90;101661.00;;;;5009930;28;20220;-78
2023/12/03 00:35:44;;;;;;;18.63;9.48;;;6.90;65.60;8.90;101659.00;;;;5008268;28;20204;-78
2023/12/03 00:38:11;;;;;;;17.70;9.02;;;6.90;65.70;8.90;101659.00;;;;5009659;28;20193;-77
2023/12/03 00:40:40;;;;;;;16.42;8.52;;;6.90;65.60;8.90;101653.00;;;;5010090;28;20196;-77
2023/12/03 00:43:07;;;;;;;19.10;8.80;;;6.90;65.60;8.90;101656.00;;;;5009095;28;20197;-77
2023/12/03 00:45:34;;;;;;;20.80;9.25;;;6.90;65.60;8.90;101654.00;;;;5007942;28;20221;-77
2023/12/03 00:48:01;;;;;;;18.45;10.10;;;6.90;65.60;8.90;101652.00;;;;5008531;28;20212;-77
2023/12/03 00:50:28;;;;;;;16.48;9.60;;;7.00;65.60;8.90;101656.00;;;;4996341;28;20718;-77
2023/12/03 00:52:55;;;;;;;19.98;10.27;;;6.90;65.50;8.90;101659.00;;;;4990214;28;20225;-77
2023/12/03 00:55:22;;;;;;;19.75;9.35;;;6.90;65.60;8.90;101649.00;;;;5007584;28;20671;-77
2023/12/03 00:57:50;;;;;;;17.52;9.88;;;6.90;65.60;8.90;101663.00;;;;5007559;28;20197;-78
2023/12/03 01:00:18;;;;;;;20.33;10.85;;;6.90;65.70;8.90;101657.00;;;;5008845;28;20605;-77
2023/12/03 01:02:45;;;;;;;19.88;9.50;;;7.00;65.70;8.90;101659.00;;;;5009451;28;20260;-78
2023/12/03 01:05:12;;;;;;;18.83;10.95;;;7.00;65.70;8.90;101652.00;;;;5008711;28;20215;-78
2023/12/03 01:07:39;;;;;;;19.83;10.13;;;7.00;65.70;8.90;101658.00;;;;5006626;28;20189;-77
2023/12/03 01:10:07;;;;;;;18.65;9.27;;;6.90;65.80;8.90;101661.00;;;;5010957;28;20208;-77
2023/12/03 01:12:35;;;;;;;18.38;10.07;;;6.90;65.70;8.90;101657.00;;;;5005847;28;20220;-77
2023/12/03 01:15:04;;;;;;;19.17;9.95;;;7.00;65.80;8.90;101652.00;;;;5007872;28;20193;-77
2023/12/03 01:17:31;;;;;;;18.17;10.70;;;6.90;65.80;8.90;101650.00;;;;5007726;28;20212;-77
2023/12/03 01:19:58;;;;;;;17.35;9.70;;;6.90;65.80;8.90;101667.00;;;;5008965;28;20746;-78
2023/12/03 01:22:25;;;;;;;17.88;9.25;;;6.90;65.80;8.90;101668.00;;;;5008768;28;20205;-78
2023/12/03 01:24:52;;;;;;;18.73;10.57;;;7.00;65.80;8.90;101670.00;;;;5009084;28;20577;-77
2023/12/03 01:27:19;;;;;;;22.40;10.88;;;7.00;65.90;8.90;101670.00;;;;5009055;28;20578;-77
2023/12/03 01:29:46;;;;;;;19.73;10.27;;;7.00;65.90;8.90;101674.00;;;;5009117;28;20201;-78
2023/12/03 01:32:14;;;;;;;20.98;11.10;;;7.00;65.90;8.90;101671.00;;;;5009408;28;20216;-78
2023/12/03 01:34:41;;;;;;;18.98;10.52;;;7.00;65.90;9.00;101670.00;;;;5009214;28;20207;-78
2023/12/03 01:37:09;;;;;;;20.40;10.35;;;7.00;66.00;9.00;101670.00;;;;5008154;28;20593;-77
2023/12/03 01:39:35;;;;;;;24.23;11.20;;;7.00;66.00;9.00;101674.00;;;;5022914;28;20207;-78
2023/12/03 01:42:03;;;;;;;22.33;12.60;;;7.10;66.00;9.00;101675.00;;;;4993767;28;20201;-78
2023/12/03 01:44:30;;;;;;;24.15;12.05;;;7.10;66.00;9.00;101674.00;;;;5008537;28;20205;-77
2023/12/03 01:47:00;;;;;;;19.98;10.73;;;7.10;66.00;9.00;101682.00;;;;5007458;28;20929;-77
2023/12/03 01:49:29;;;;;;;19.48;11.15;;;7.10;66.00;9.00;101680.00;;;;5007700;28;20667;-77
2023/12/03 01:51:56;;;;;;;19.92;11.05;;;7.10;66.00;9.10;101681.00;;;;5006498;28;20201;-77
2023/12/03 01:54:28;;;;;;;22.30;12.13;;;7.10;66.00;9.00;101680.00;;;;5007348;28;20216;-77
2023/12/03 01:56:55;;;;;;;20.23;11.38;;;7.10;66.00;9.10;101685.00;;;;5007647;28;20589;-78
2023/12/03 01:59:23;;;;;;;22.65;10.93;;;7.10;66.00;9.10;101689.00;;;;5008436;28;20201;-77
2023/12/03 02:01:50;;;;;;;20.17;10.82;;;7.10;66.00;9.10;101692.00;;;;5006564;28;20230;-78
2023/12/03 02:04:17;;;;;;;21.60;11.45;;;7.10;66.00;9.10;101687.00;;;;5007562;28;20219;-78
2023/12/03 02:06:46;;;;;;;22.70;11.82;;;7.20;66.10;9.10;101698.00;;;;5008135;28;20197;-77
2023/12/03 02:09:14;;;;;;;19.27;11.55;;;7.20;66.10;9.20;101693.00;;;;5011121;28;20200;-78
2023/12/03 02:11:42;;;;;;;21.48;12.32;;;7.20;66.10;9.20;101692.00;;;;5010790;28;20209;-77
2023/12/03 02:14:10;;;;;;;19.50;11.32;;;7.20;66.10;9.20;101700.00;;;;5011272;28;20232;-77
2023/12/03 02:16:37;;;;;;;18.45;9.85;;;7.20;66.10;9.20;101697.00;;;;5009991;28;20943;-77
2023/12/03 02:19:04;;;;;;;22.58;12.45;;;7.20;66.00;9.20;101700.00;;;;5010721;28;20213;-78
2023/12/03 02:21:30;;;;;;;19.90;11.98;;;7.20;66.00;9.20;101693.00;;;;5011786;28;20208;-78
2023/12/03 02:23:59;;;;;;;18.75;10.27;;;7.20;66.00;9.20;101695.00;;;;5010382;28;21054;-77
2023/12/03 02:26:26;;;;;;;18.88;11.27;;;7.30;66.00;9.20;101689.00;;;;5011586;28;20193;-77
2023/12/03 02:28:53;;;;;;;18.30;11.02;;;7.20;65.90;9.20;101687.00;;;;5010046;28;20570;-78
2023/12/03 02:31:19;;;;;;;18.88;10.23;;;7.30;66.00;9.20;101690.00;;;;5010437;28;20212;-77
2023/12/03 02:33:58;;;;;;;16.10;9.75;;;7.30;66.00;9.10;101693.00;;;;4998691;28;20232;-78
2023/12/03 02:36:25;;;;;;;20.77;11.85;;;7.30;66.00;9.20;101696.00;;;;5011376;28;20211;-78
2023/12/03 02:38:52;;;;;;;17.48;10.52;;;7.30;66.00;9.20;101685.00;;;;4998070;28;20664;-78
2023/12/03 02:41:20;;;;;;;17.20;9.90;;;7.30;66.00;9.20;101693.00;;;;5011606;28;20204;-77
2023/12/03 02:43:47;;;;;;;16.65;10.80;;;7.30;66.00;9.30;101683.00;;;;5010253;28;20674;-77
2023/12/03 02:46:14;;;;;;;16.73;10.07;;;7.30;66.00;9.30;101692.00;;;;5012007;28;20224;-77
2023/12/03 02:48:41;;;;;;;17.55;10.77;;;7.30;66.00;9.30;101689.00;;;;5002023;28;20194;-77
2023/12/03 02:51:09;;;;;;;16.13;10.75;;;7.30;66.00;9.30;101691.00;;;;5017468;28;21069;-78
2023/12/03 02:53:37;;;;;;;17.30;10.20;;;7.30;66.00;9.30;101688.00;;;;5018282;28;20231;-77
2023/12/03 02:56:05;;;;;;;18.70;11.52;;;7.40;66.00;9.30;101700.00;;;;5031470;28;20208;-77
2023/12/03 02:58:35;;;;;;;15.50;10.13;;;7.40;66.00;9.20;101701.00;;;;5021537;28;21018;-77
2023/12/03 03:01:02;;;;;;;15.80;11.65;;;7.40;65.90;9.30;101698.00;;;;5009421;28;20244;-76
2023/12/03 03:03:29;;;;;;;16.60;11.40;;;7.40;65.90;9.20;101695.00;;;;5009566;28;20232;-77
2023/12/03 03:05:56;;;;;;;16.52;12.25;;;7.40;65.70;9.20;101701.00;;;;5010226;28;20204;-77
2023/12/03 03:08:24;;;;;;;17.55;12.02;;;7.40;65.60;9.10;101703.00;;;;5011593;28;20679;-77
2023/12/03 03:10:51;;;;;;;19.38;12.35;;;7.30;65.50;9.10;101709.00;;;;5009777;28;20212;-77
2023/12/03 03:13:18;;;;;;;16.25;11.20;;;7.30;65.60;9.10;101699.00;;;;5010137;28;20228;-77
2023/12/03 03:15:46;;;;;;;14.88;11.13;;;7.30;65.60;9.10;101709.00;;;;5009590;28;20201;-77
2023/12/03 03:18:13;;;;;;;19.17;12.73;;;7.30;65.60;9.20;101707.00;;;;5010606;28;20212;-78
2023/12/03 03:20:41;;;;;;;18.33;13.05;;;7.30;65.70;9.20;101719.00;;;;5009687;28;20204;-77
2023/12/03 03:23:08;;;;;;;18.90;13.23;;;7.30;65.70;9.20;101709.00;;;;5009995;28;20189;-77
2023/12/03 03:25:35;;;;;;;16.98;12.18;;;7.30;65.80;9.20;101716.00;;;;5010384;28;20745;-77
2023/12/03 03:28:02;;;;;;;19.73;13.85;;;7.30;65.80;9.20;101713.00;;;;5009596;28;20208;-77
2023/12/03 03:30:29;;;;;;;18.40;13.57;;;7.30;65.80;9.30;101713.00;;;;5010289;28;20718;-77
2023/12/03 03:32:57;;;;;;;17.63;13.10;;;7.30;65.80;9.30;101713.00;;;;5005167;28;20228;-77
2023/12/03 03:35:24;;;;;;;18.90;12.68;;;7.30;65.80;9.30;101708.00;;;;5010541;28;20204;-78
2023/12/03 03:37:51;;;;;;;18.17;14.40;;;7.40;65.70;9.30;101704.00;;;;5008063;28;20932;-78
2023/12/03 03:40:18;;;;;;;18.85;13.10;;;7.30;65.50;9.30;101699.00;;;;5011183;28;20212;-78
2023/12/03 03:42:45;;;;;;;16.67;12.45;;;7.40;65.50;9.30;101710.00;;;;5007843;28;20193;-77
2023/12/03 03:45:12;;;;;;;17.88;12.23;;;7.40;65.40;9.30;101710.00;;;;5010578;28;20633;-77
2023/12/03 03:47:39;;;;;;;16.70;11.73;;;7.40;65.40;9.30;101705.00;;;;5009025;28;20201;-77
2023/12/03 03:50:08;;;;;;;15.95;11.52;;;7.40;65.30;9.20;101710.00;;;;5014413;28;20201;-77
2023/12/03 03:52:35;;;;;;;14.25;11.13;;;7.40;65.20;9.20;101709.00;;;;5009644;28;20216;-77
2023/12/03 03:55:02;;;;;;;16.02;10.18;;;7.30;65.10;9.20;101705.00;;;;5010056;28;20204;-77
2023/12/03 03:57:29;;;;;;;16.45;11.25;;;7.30;65.00;9.20;101701.00;;;;5009867;28;20216;-77
2023/12/03 03:59:56;;;;;;;14.00;10.38;;;7.30;64.80;9.10;101711.00;;;;5010503;28;20197;-77
2023/12/03 04:02:23;;;;;;;14.63;10.60;;;7.20;64.60;9.10;101708.00;;;;5006754;28;20224;-77
2023/12/03 04:04:50;;;;;;;11.85;9.73;;;7.20;64.50;9.00;101705.00;;;;5009502;28;20208;-77
2023/12/03 04:07:18;;;;;;;12.85;9.43;;;7.10;64.40;9.00;101710.00;;;;5009770;28;20685;-78
2023/12/03 04:09:46;;;;;;;14.93;10.05;;;7.10;64.30;8.90;101706.00;;;;5010691;28;20181;-77
2023/12/03 04:12:14;;;;;;;11.82;9.07;;;7.00;64.20;8.90;101710.00;;;;5008820;28;20205;-77
2023/12/03 04:14:42;;;;;;;14.27;9.88;;;7.00;64.10;8.80;101714.00;;;;5010392;28;20318;-77
2023/12/03 04:17:09;;;;;;;13.55;9.57;;;6.90;64.00;8.70;101719.00;;;;5010105;28;20193;-77
2023/12/03 04:19:37;;;;;;;13.48;10.40;;;6.80;64.00;8.70;101716.00;;;;5019103;28;20271;-77
2023/12/03 04:22:04;;;;;;;14.05;10.00;;;6.80;64.00;8.60;101723.00;;;;5009414;28;20885;-78
2023/12/03 04:24:32;;;;;;;16.30;10.43;;;6.70;64.70;8.60;101718.00;;;;5008949;28;20663;-77
2023/12/03 04:27:00;;;;;;;13.50;10.38;;;6.60;64.00;8.50;101716.00;;;;5008788;28;20224;-77
2023/12/03 04:29:26;;;;;;;14.35;10.57;;;6.60;64.00;8.50;101715.00;;;;5009299;28;20224;-77
2023/12/03 04:31:53;;;;;;;12.57;9.32;;;6.50;64.00;8.40;101707.00;;;;5007136;28;20574;-77
2023/12/03 04:34:20;;;;;;;12.85;9.98;;;6.50;64.10;8.30;101715.00;;;;5009523;28;20597;-77
2023/12/03 04:36:47;;;;;;;14.35;10.57;;;6.40;64.10;8.30;101719.00;;;;5009779;28;20204;-77
2023/12/03 04:39:14;;;;;;;17.35;11.30;;;6.30;64.10;8.20;101723.00;;;;5009776;28;20201;-77
2023/12/03 04:41:42;;;;;;;15.90;11.57;;;6.30;64.20;8.20;101727.00;;;;5008577;28;20202;-77
2023/12/03 04:44:09;;;;;;;14.98;10.70;;;6.20;64.10;8.20;101735.00;;;;5009689;28;20208;-77
2023/12/03 04:46:41;;;;;;;13.13;9.82;;;6.20;64.20;8.10;101729.00;;;;5009022;28;20220;-77
2023/12/03 04:49:08;;;;;;;15.18;10.93;;;6.10;64.30;8.00;101729.00;;;;5011113;28;20193;-77
2023/12/03 04:51:35;;;;;;;14.38;10.25;;;6.10;64.30;8.00;101728.00;;;;5008869;28;20255;-77
2023/12/03 04:54:02;;;;;;;13.73;9.98;;;6.10;64.30;7.90;101729.00;;;;5008953;28;20690;-77
2023/12/03 04:56:30;;;;;;;14.60;10.88;;;6.00;64.30;7.90;101727.00;;;;5004082;28;20201;-77
2023/12/03 04:58:59;;;;;;;14.05;10.30;;;5.90;64.30;7.80;101735.00;;;;5000995;28;20204;-77
2023/12/03 05:01:26;;;;;;;14.23;9.88;;;5.90;64.40;7.80;101730.00;;;;5008703;28;20240;-77
2023/12/03 05:03:55;;;;;;;13.13;9.93;;;5.90;64.40;7.70;101732.00;;;;5010193;28;20201;-77
2023/12/03 05:06:22;;;;;;;15.02;10.35;;;5.80;64.40;7.70;101735.00;;;;5010066;28;20558;-77
2023/12/03 05:08:49;;;;;;;15.98;11.07;;;5.80;64.40;7.70;101728.00;;;;5008662;28;20208;-77
2023/12/03 05:11:16;;;;;;;15.60;11.23;;;5.70;64.30;7.60;101730.00;;;;5009046;28;20718;-78
2023/12/03 05:13:43;;;;;;;17.08;10.32;;;5.70;64.40;7.60;101714.00;;;;5007176;28;20315;-77
2023/12/03 05:16:12;;;;;;;17.02;12.05;;;5.60;64.40;7.50;101729.00;;;;5006826;28;20204;-77
2023/12/03 05:18:39;;;;;;;16.05;11.18;;;5.60;64.50;7.50;101732.00;;;;5011658;28;21023;-77
2023/12/03 05:21:08;;;;;;;15.32;11.18;;;5.60;64.50;7.50;101728.00;;;;4999727;28;20201;-77
2023/12/03 05:23:35;;;;;;;15.55;10.75;;;5.50;64.60;7.40;101729.00;;;;5001025;28;20205;-77
2023/12/03 05:26:02;;;;;;;16.15;11.07;;;5.50;64.60;7.40;101729.00;;;;5006394;28;20565;-78
2023/12/03 05:28:29;;;;;;;14.05;10.07;;;5.50;64.70;7.40;101729.00;;;;5006453;28;20204;-77
2023/12/03 05:30:56;;;;;;;16.05;10.95;;;5.50;64.80;7.40;101728.00;;;;5007327;28;20288;-77
2023/12/03 05:33:25;;;;;;;15.75;11.02;;;5.40;64.80;7.30;101724.00;;;;5007896;28;20698;-77
2023/12/03 05:35:52;;;;;;;18.30;11.32;;;5.40;64.80;7.30;101732.00;;;;5005752;28;20207;-78
2023/12/03 05:38:19;;;;;;;14.52;10.23;;;5.40;64.80;7.30;101734.00;;;;5006776;28;20667;-78
2023/12/03 05:40:45;;;;;;;16.15;11.05;;;5.40;64.80;7.30;101724.00;;;;5005950;28;20227;-78
2023/12/03 05:43:13;;;;;;;16.83;10.88;;;5.40;64.80;7.20;101734.00;;;;4999357;28;20208;-77
2023/12/03 05:45:40;;;;;;;15.43;10.25;;;5.30;64.80;7.20;101730.00;;;;5004595;28;20220;-78
2023/12/03 05:48:07;;;;;;;14.80;9.88;;;5.30;64.70;7.20;101733.00;;;;5006419;28;20559;-78
2023/12/03 05:50:36;;;;;;;16.02;10.45;;;5.30;64.80;7.20;101731.00;;;;5007166;28;20259;-77
2023/12/03 05:53:03;;;;;;;16.20;10.68;;;5.20;64.80;7.20;101736.00;;;;5006882;28;20204;-77
2023/12/03 05:55:30;;;;;;;15.15;10.48;;;5.20;64.80;7.10;101737.00;;;;5006693;28;20217;-78
2023/12/03 05:57:56;;;;;;;16.80;11.20;;;5.20;65.00;7.10;101744.00;;;;5004427;28;20208;-78
2023/12/03 06:00:26;;;;;;;17.13;11.48;;;5.20;65.00;7.10;101738.00;;;;5004651;28;20208;-78
2023/12/03 06:02:53;;;;;;;15.68;11.05;;;5.20;65.10;7.10;101739.00;;;;5003337;28;20231;-78
2023/12/03 06:05:20;;;;;;;18.27;11.32;;;5.10;65.10;7.10;101742.00;;;;5007369;28;20209;-78
2023/12/03 06:07:49;;;;;;;16.38;10.90;;;5.10;65.10;7.10;101745.00;;;;5006960;28;20552;-78
2023/12/03 06:10:16;;;;;;;15.45;10.38;;;5.20;65.20;7.10;101750.00;;;;5006743;28;20300;-78
2023/12/03 06:12:43;;;;;;;16.75;11.00;;;5.10;65.10;7.00;101754.00;;;;5004456;28;20198;-78
2023/12/03 06:15:10;;;;;;;16.50;11.30;;;5.10;65.10;7.00;101752.00;;;;5006950;28;20229;-78
2023/12/03 06:17:37;;;;;;;19.67;12.50;;;5.10;65.20;7.00;101759.00;;;;5004939;28;20198;-78
2023/12/03 06:20:06;;;;;;;18.02;10.95;;;5.10;65.20;7.00;101760.00;;;;5006351;28;20683;-78
2023/12/03 06:22:33;;;;;;;15.73;11.07;;;5.10;65.20;7.00;101761.00;;;;5006502;28;20691;-77
2023/12/03 06:25:01;;;;;;;18.83;11.18;;;5.00;65.10;6.90;101756.00;;;;5002612;28;22493;-78
2023/12/03 06:27:28;;;;;;;17.98;11.73;;;5.00;65.10;6.90;101761.00;;;;5007189;28;20219;-78
2023/12/03 06:29:55;;;;;;;15.00;10.27;;;5.00;65.10;6.90;101770.00;;;;5006427;28;20208;-77
2023/12/03 06:32:22;;;;;;;17.02;10.50;;;5.00;65.10;6.90;101769.00;;;;5005957;28;20201;-77
2023/12/03 06:34:49;;;;;;;17.58;11.20;;;5.00;65.10;6.90;101761.00;;;;5005610;28;20212;-77
2023/12/03 06:37:16;;;;;;;17.88;11.65;;;5.00;65.10;6.90;101758.00;;;;5006763;28;20578;-77
2023/12/03 06:39:43;;;;;;;16.90;11.43;;;4.90;65.10;6.90;101751.00;;;;5003856;28;20205;-78
2023/12/03 06:42:11;;;;;;;18.75;11.65;;;4.90;65.20;6.80;101766.00;;;;5006546;28;20193;-78
2023/12/03 06:44:38;;;;;;;17.23;11.10;;;4.90;65.20;6.80;101761.00;;;;5000563;28;20203;-77
2023/12/03 06:47:06;;;;;;;16.95;9.82;;;4.90;65.20;6.80;101767.00;;;;5005576;28;20216;-78
2023/12/03 06:49:33;;;;;;;16.83;10.25;;;4.80;65.10;6.80;101764.00;;;;5006470;28;20201;-77
2023/12/03 06:52:00;;;;;;;17.42;11.15;;;4.80;65.10;6.80;101760.00;;;;5015574;23;20237;-77
2023/12/03 06:54:28;;;;;;;20.70;12.15;;;4.80;65.10;6.80;101766.00;;;;5007755;28;20615;-78
2023/12/03 06:56:55;;;;;;;20.58;12.27;;;4.80;65.20;6.70;101770.00;;;;5005324;28;20280;-77
2023/12/03 06:59:24;;;;;;;18.65;11.10;;;4.80;65.20;6.70;101775.00;;;;5011581;28;20201;-77
2023/12/03 07:01:51;;;;;;;18.10;11.48;;;4.80;65.20;6.70;101768.00;;;;4995628;28;20228;-77
2023/12/03 07:04:18;;;;;;;21.83;11.68;;;4.80;65.20;6.70;101779.00;;;;5012466;28;20204;-77
2023/12/03 07:06:45;;;;;;;22.02;12.30;;;4.70;65.20;6.70;101781.00;;;;5011697;28;20200;-77
2023/12/03 07:09:14;;;;;;;18.83;12.10;;;4.70;65.20;6.60;101777.00;;;;5010926;28;20676;-77
2023/12/03 07:11:41;;;;;;;21.75;14.20;;;4.70;65.20;6.60;101785.00;;;;5011540;28;20235;-78
2023/12/03 07:14:08;;;;;;;21.85;13.18;;;4.70;65.20;6.60;101782.00;;;;5011467;28;20689;-77
2023/12/03 07:16:37;;;;;;;21.67;13.15;;;4.60;65.20;6.60;101781.00;;;;5010831;28;20202;-77
2023/12/03 07:19:04;;;;;;;22.30;12.95;;;4.60;65.20;6.60;101780.00;;;;5008134;28;20376;-78
2023/12/03 07:21:31;;;;;;;22.73;12.38;;;4.70;65.40;6.50;101781.00;;;;5006404;28;20189;-78
2023/12/03 07:23:58;;;;;;;23.80;13.75;;;4.60;65.20;6.50;101777.00;;;;5009096;28;20197;-78
2023/12/03 07:26:25;;;;;;;23.70;14.15;;;4.60;65.30;6.50;101768.00;;;;5010222;28;20605;-78
2023/12/03 07:28:52;;;;;;;21.63;12.55;;;4.60;65.30;6.50;101769.00;;;;5012050;28;20264;-78
2023/12/03 07:31:19;;;;;;;22.17;13.80;;;4.60;65.40;6.50;101773.00;;;;5005303;28;20688;-78
2023/12/03 07:33:48;;;;;;;21.45;12.38;;;4.60;65.40;6.50;101776.00;;;;4998807;28;20311;-78
2023/12/03 07:36:15;;;;;;;24.73;13.32;;;4.50;65.40;6.50;101776.00;;;;5011742;28;20673;-77
2023/12/03 07:38:42;;;;;;;22.55;12.55;;;4.60;65.40;6.50;101778.00;;;;5011506;28;20292;-77
2023/12/03 07:41:13;;;;;;;23.55;14.50;;;4.50;65.40;6.40;101772.00;;;;5010668;28;20201;-79
2023/12/03 07:43:40;;;;;;;22.88;13.65;;;4.60;65.50;6.50;101771.00;;;;5009769;28;20603;-75
2023/12/03 07:46:10;;;;;;;24.15;13.77;;;4.50;65.40;6.50;101782.00;;;;5012793;28;20198;-75
2023/12/03 07:48:37;;;;;;;23.58;13.70;;;4.50;65.50;6.50;101775.00;;;;5011421;28;20197;-74
2023/12/03 07:51:11;;;;;;;26.30;14.02;;;4.50;65.50;6.40;101776.00;;;;5013284;28;20193;-75
2023/12/03 07:53:39;;;;;;;22.23;12.32;;;4.50;65.50;6.50;101774.00;;;;5010212;28;20231;-74
2023/12/03 07:56:08;;;;;;;23.00;13.15;;;4.50;65.50;6.50;101778.00;;;;5012806;28;20593;-74
2023/12/03 07:58:36;;;;;;;20.80;12.95;;;4.50;65.50;6.50;101780.00;;;;5012416;28;20204;-84
2023/12/03 08:01:05;;;;;;;21.38;13.23;;;4.50;65.60;6.50;101784.00;;;;5012154;28;20195;-83
2023/12/03 08:03:32;;;;;;;26.35;14.45;;;4.50;65.60;6.50;101789.00;;;;5009661;28;20203;-83
2023/12/03 08:05:59;;;;;;;23.65;13.75;;;4.50;65.60;6.50;101792.00;;;;5002345;28;20197;-81
2023/12/03 08:08:28;;;;;;;24.52;13.43;;;4.60;66.30;6.50;101785.00;;;;5009082;28;20285;-82
2023/12/03 08:10:55;;;;;;;23.15;14.02;;;4.60;65.70;6.50;101788.00;;;;5009474;28;20223;-82
2023/12/03 08:13:22;;;;;;;22.23;13.32;;;4.60;65.70;6.60;101789.00;;;;5005678;28;20289;-83
2023/12/03 08:15:49;;;;;;;24.70;13.80;;;4.60;65.60;6.60;101797.00;;;;5007512;28;20356;-82
2023/12/03 08:18:16;;;;;;;24.60;13.60;;;4.60;65.70;6.60;101801.00;;;;5001171;28;20205;-82
2023/12/03 08:20:43;;;;;;;21.95;13.60;;;4.60;66.30;6.60;101799.00;;;;5009449;28;20212;-83
2023/12/03 08:23:10;;;;;;;23.17;13.75;;;4.60;65.70;6.60;101803.00;;;;5009947;28;20204;-82
2023/12/03 08:25:38;;;;;;;21.63;12.27;;;4.60;65.70;6.70;101803.00;;;;5010687;28;20193;-80
2023/12/03 08:28:06;;;;;;;23.77;12.82;;;4.60;65.70;6.70;101808.00;;;;5009649;28;20197;-83
2023/12/03 08:30:33;;;;;;;22.02;13.52;;;4.70;65.70;6.70;101807.00;;;;5009802;28;20215;-82
2023/12/03 08:33:00;;;;;;;22.75;13.90;;;4.70;65.80;6.70;101798.00;;;;5011463;28;20205;-82
2023/12/03 08:35:27;;;;;;;22.08;12.90;;;4.70;65.80;6.80;101800.00;;;;5012989;28;20585;-81
2023/12/03 08:37:54;;;;;;;24.20;14.57;;;4.70;65.80;6.80;101808.00;;;;5011227;28;20293;-80
2023/12/03 08:40:22;;;;;;;25.88;14.00;;;4.80;65.80;6.80;101812.00;;;;5009466;28;20263;-80
2023/12/03 08:42:50;;;;;;;23.65;13.95;;;4.80;65.80;6.90;101811.00;;;;5007536;28;20204;-80
2023/12/03 08:45:17;;;;;;;20.73;13.45;;;4.80;65.80;6.90;101815.00;;;;5000782;28;20724;-81
2023/12/03 08:47:44;;;;;;;25.73;14.18;;;4.90;65.80;6.90;101812.00;;;;5008457;28;20903;-80
2023/12/03 08:50:12;;;;;;;24.98;13.52;;;4.90;65.80;6.90;101817.00;;;;5009374;28;20213;-81
2023/12/03 08:52:39;;;;;;;22.33;13.25;;;4.90;65.70;7.00;101823.00;;;;5009425;28;20229;-82
2023/12/03 08:55:08;;;;;;;22.70;13.48;;;5.00;65.60;7.00;101815.00;;;;5002959;28;20227;-81
2023/12/03 08:57:35;;;;;;;26.63;15.05;;;5.00;65.60;7.00;101824.00;;;;5009553;28;20197;-81
2023/12/03 09:00:07;;;;;;;26.15;15.05;;;5.00;65.50;7.00;101827.00;;;;5008087;28;20204;-81
2023/12/03 09:02:35;;;;;;;23.98;14.15;;;5.10;65.50;7.00;101827.00;;;;5005035;28;20247;-81
2023/12/03 09:05:02;;;;;;;24.38;14.40;;;5.10;65.50;7.00;101824.00;;;;5009979;28;20650;-82
2023/12/03 09:07:30;;;;;;;22.83;13.52;;;5.10;65.40;7.10;101823.00;;;;5002921;28;20293;-80
2023/12/03 09:09:57;;;;;;;20.92;12.13;;;5.10;65.40;7.10;101818.00;;;;5008169;28;20205;-78
2023/12/03 09:12:25;;;;;;;23.13;13.05;;;5.10;65.40;7.10;101821.00;;;;5008755;28;20207;-81
2023/12/03 09:14:52;;;;;;;25.13;14.13;;;5.10;65.40;7.20;101823.00;;;;5006971;28;20225;-81
2023/12/03 09:17:21;;;;;;;22.05;13.00;;;5.20;65.40;7.20;101825.00;;;;5010154;28;20213;-81
2023/12/03 09:19:49;;;;;;;26.67;14.45;;;5.20;65.40;7.20;101823.00;;;;5010552;28;20192;-83
2023/12/03 09:22:16;;;;;;;22.55;12.90;;;5.20;65.40;7.30;101817.00;;;;5010308;28;20228;-83
2023/12/03 09:24:43;;;;;;;23.80;13.57;;;5.20;65.30;7.20;101813.00;;;;5011119;28;20201;-82
2023/12/03 09:27:10;;;;;;;23.70;13.35;;;5.30;65.30;7.30;101818.00;;;;5010319;28;20666;-81
2023/12/03 09:29:37;;;;;;;22.58;12.95;;;5.30;65.20;7.30;101808.00;;;;5008262;28;20197;-81
2023/12/03 09:32:05;;;;;;;24.25;13.98;;;5.30;65.20;7.30;101812.00;;;;5010094;28;20197;-79
2023/12/03 09:34:33;;;;;;;23.00;13.27;;;5.30;65.10;7.30;101816.00;;;;5007804;28;20201;-79
2023/12/03 09:37:03;;;;;;;22.90;13.15;;;5.40;65.90;7.40;101815.00;;;;5003074;28;20725;-80
2023/12/03 09:39:30;;;;;;;23.73;13.70;;;5.40;65.30;7.40;101811.00;;;;5010603;28;20697;-79
2023/12/03 09:42:02;;;;;;;23.48;12.43;;;5.40;65.30;7.40;101807.00;;;;5006563;28;20189;-72
2023/12/03 09:44:41;;;;;;;22.88;12.70;;;5.40;65.10;7.40;101803.00;;;;5003916;28;20249;-72
2023/12/03 09:47:08;;;;;;;19.55;11.98;;;5.50;65.20;7.50;101802.00;;;;5009090;28;20202;-72
2023/12/03 09:49:39;;;;;;;21.38;11.73;;;5.50;65.10;7.50;101805.00;;;;5004294;28;20200;-72
2023/12/03 09:52:08;;;;;;;21.75;12.27;;;5.60;65.10;7.60;101807.00;;;;5009954;28;20271;-72
2023/12/03 09:54:37;;;;;;;18.17;11.38;;;5.60;65.10;7.60;101795.00;;;;5011045;28;20713;-72
2023/12/03 09:57:08;;;;;;;19.70;10.82;;;5.70;65.10;7.70;101800.00;;;;5006839;28;20204;-72
2023/12/03 09:59:40;;;;;;;19.50;10.77;;;5.70;65.00;7.70;101799.00;;;;5009310;28;20210;-72
2023/12/03 10:02:13;;;;;;;19.38;11.40;;;5.70;64.90;7.70;101802.00;;;;5005569;28;20574;-74
2023/12/03 10:04:43;;;;;;;19.95;10.82;;;5.80;64.80;7.80;101794.00;;;;5004343;28;20197;-74
2023/12/03 10:07:12;;;;;;;17.70;11.10;;;5.80;64.70;7.90;101806.00;;;;5009432;28;20216;-74
2023/12/03 10:09:43;;;;;;;17.77;10.27;;;5.90;64.80;7.90;101802.00;;;;5008473;28;20192;-75
2023/12/03 10:12:17;;;;;;;21.77;11.43;;;5.90;64.80;7.90;101805.00;;;;5004039;28;20193;-74
2023/12/03 10:14:45;;;;;;;18.90;9.93;;;5.90;64.70;8.00;101810.00;;;;5010782;28;20350;-74
2023/12/03 10:17:19;;;;;;;21.88;11.10;;;6.00;64.70;8.00;101803.00;;;;5005983;28;20200;-74
2023/12/03 10:19:48;;;;;;;18.35;11.02;;;6.10;64.60;8.10;101794.00;;;;5007975;28;20203;-75
2023/12/03 10:22:15;;;;;;;16.30;9.90;;;6.10;64.40;8.10;101793.00;;;;5009229;28;20216;-74
2023/12/03 10:24:49;;;;;;;19.35;10.82;;;6.20;64.40;8.00;101793.00;;;;5009963;28;20189;-74
2023/12/03 10:27:17;;;;;;;16.50;9.65;;;6.20;64.10;8.10;101782.00;;;;5009758;28;20264;-75
2023/12/03 10:29:46;;;;;;;17.20;10.38;;;6.20;63.90;8.10;101779.00;;;;5011599;28;20193;-74
2023/12/03 10:32:13;;;;;;;14.82;9.10;;;6.20;63.60;8.10;101785.00;;;;5012777;28;20193;-74
2023/12/03 10:34:50;;;;;;;18.05;10.52;;;6.20;63.60;8.00;101784.00;;;;5010328;28;20303;-76
2023/12/03 10:37:18;;;;;;;14.40;8.32;;;6.20;63.40;8.10;101780.00;;;;5002573;28;20243;-74
2023/12/03 10:39:45;;;;;;;17.42;9.82;;;6.20;63.40;8.10;101782.00;;;;5004644;28;20190;-74
2023/12/03 10:42:12;;;;;;;18.77;10.25;;;6.20;63.40;8.10;101770.00;;;;5012392;28;20613;-75
2023/12/03 10:44:39;;;;;;;15.70;9.60;;;6.20;63.30;8.10;101776.00;;;;5012953;28;20211;-75
2023/12/03 10:47:07;;;;;;;19.35;10.25;;;6.30;63.40;8.10;101780.00;;;;5012468;28;20193;-75
2023/12/03 10:49:35;;;;;;;18.00;9.77;;;6.30;63.40;8.20;101780.00;;;;5011893;28;20216;-75